sensor_id;sensor_type;location;lat;lon;timestamp;pressure;altitude;pressure_sealevel;temperature;humidity
71903;BME280;59778;50.310;18.780;2023-09-12T00:14:15;98492.75;;;16.09;79.75
71903;BME280;59778;50.310;18.780;2023-09-12T00:29:37;98492.53;;;16.11;78.59
71903;BME280;59778;50.310;18.780;2023-09-12T00:44:58;98490.53;;;16.06;78.25
71903;BME280;59778;50.310;18.780;2023-09-12T01:00:20;98497.88;;;15.92;78.75
71903;BME280;59778;50.310;18.780;2023-09-12T01:15:41;98492.16;;;15.82;79.41
71903;BME280;59778;50.310;18.780;2023-09-12T01:31:03;98489.78;;;15.74;79.24
71903;BME280;59778;50.310;18.780;2023-09-12T01:46:25;98500.34;;;15.62;79.60
71903;BME280;59778;50.310;18.780;2023-09-12T02:01:47;98501.38;;;15.61;79.48
71903;BME280;59778;50.310;18.780;2023-09-12T02:17:08;98502.50;;;15.47;79.99
71903;BME280;59778;50.310;18.780;2023-09-12T02:32:30;98492.81;;;15.46;79.68
71903;BME280;59778;50.310;18.780;2023-09-12T02:47:51;98489.13;;;15.40;80.00
71903;BME280;59778;50.310;18.780;2023-09-12T03:03:12;98499.84;;;15.40;79.66
71903;BME280;59778;50.310;18.780;2023-09-12T03:18:34;98512.22;;;15.35;79.58
71903;BME280;59778;50.310;18.780;2023-09-12T03:33:55;98504.72;;;15.19;79.45
71903;BME280;59778;50.310;18.780;2023-09-12T03:49:16;98500.19;;;15.12;79.40
71903;BME280;59778;50.310;18.780;2023-09-12T04:04:37;98504.97;;;15.04;79.46
71903;BME280;59778;50.310;18.780;2023-09-12T04:19:59;98503.56;;;15.01;80.32
71903;BME280;59778;50.310;18.780;2023-09-12T04:35:21;98516.84;;;15.21;81.27
71903;BME280;59778;50.310;18.780;2023-09-12T04:50:42;98516.97;;;15.33;81.03
71903;BME280;59778;50.310;18.780;2023-09-12T05:06:03;98527.97;;;15.56;80.70
71903;BME280;59778;50.310;18.780;2023-09-12T05:21:25;98533.22;;;15.83;80.81
71903;BME280;59778;50.310;18.780;2023-09-12T05:36:46;98522.75;;;16.24;80.39
71903;BME280;59778;50.310;18.780;2023-09-12T05:52:08;98530.88;;;16.61;80.31
71903;BME280;59778;50.310;18.780;2023-09-12T06:07:29;98527.81;;;17.12;80.95
71903;BME280;59778;50.310;18.780;2023-09-12T06:22:51;98542.13;;;17.73;81.86
71903;BME280;59778;50.310;18.780;2023-09-12T06:38:12;98530.88;;;18.53;79.52
71903;BME280;59778;50.310;18.780;2023-09-12T06:53:34;98537.66;;;19.31;74.99
71903;BME280;59778;50.310;18.780;2023-09-12T07:08:55;98537.78;;;20.26;72.15
71903;BME280;59778;50.310;18.780;2023-09-12T07:24:16;98531.16;;;21.11;67.62
71903;BME280;59778;50.310;18.780;2023-09-12T07:39:38;98543.53;;;22.05;64.54
71903;BME280;59778;50.310;18.780;2023-09-12T07:55:00;98536.38;;;22.95;60.88
71903;BME280;59778;50.310;18.780;2023-09-12T08:10:21;98537.19;;;23.74;57.04
71903;BME280;59778;50.310;18.780;2023-09-12T08:25:42;98520.63;;;24.62;55.15
71903;BME280;59778;50.310;18.780;2023-09-12T08:41:05;98528.91;;;25.21;54.63
71903;BME280;59778;50.310;18.780;2023-09-12T08:56:27;98523.94;;;25.83;52.61
71903;BME280;59778;50.310;18.780;2023-09-12T09:11:48;98517.41;;;26.52;49.49
71903;BME280;59778;50.310;18.780;2023-09-12T09:27:09;98514.69;;;27.00;45.90
71903;BME280;59778;50.310;18.780;2023-09-12T09:42:31;98505.00;;;27.55;47.73
71903;BME280;59778;50.310;18.780;2023-09-12T09:57:52;98496.94;;;27.45;44.94
71903;BME280;59778;50.310;18.780;2023-09-12T10:13:14;98496.91;;;27.88;42.80
71903;BME280;59778;50.310;18.780;2023-09-12T10:28:41;98488.28;;;28.46;41.42
71903;BME280;59778;50.310;18.780;2023-09-12T10:44:06;98481.84;;;28.83;37.59
71903;BME280;59778;50.310;18.780;2023-09-12T10:59:30;98486.25;;;29.34;35.58
71903;BME280;59778;50.310;18.780;2023-09-12T11:15:05;98477.59;;;29.68;35.43
71903;BME280;59778;50.310;18.780;2023-09-12T11:30:27;98469.56;;;30.17;33.58
71903;BME280;59778;50.310;18.780;2023-09-12T11:45:52;98467.34;;;30.89;32.53
71903;BME280;59778;50.310;18.780;2023-09-12T12:01:15;98454.72;;;30.80;32.81
71903;BME280;59778;50.310;18.780;2023-09-12T12:16:36;98447.53;;;31.01;33.04
71903;BME280;59778;50.310;18.780;2023-09-12T12:32:01;98447.25;;;30.40;33.16
71903;BME280;59778;50.310;18.780;2023-09-12T12:47:23;98433.53;;;31.54;32.61
71903;BME280;59778;50.310;18.780;2023-09-12T13:02:45;98427.19;;;32.15;30.06
71903;BME280;59778;50.310;18.780;2023-09-12T13:18:06;98436.06;;;30.99;32.60
71903;BME280;59778;50.310;18.780;2023-09-12T13:33:27;98414.31;;;31.54;31.37
71903;BME280;59778;50.310;18.780;2023-09-12T13:48:49;98415.03;;;32.33;29.92
71903;BME280;59778;50.310;18.780;2023-09-12T14:04:10;98416.28;;;32.44;30.06
71903;BME280;59778;50.310;18.780;2023-09-12T14:19:31;98418.03;;;31.59;30.94
71903;BME280;59778;50.310;18.780;2023-09-12T14:34:52;98419.63;;;31.68;31.28
71903;BME280;59778;50.310;18.780;2023-09-12T14:50:14;98420.75;;;31.24;31.97
71903;BME280;59778;50.310;18.780;2023-09-12T15:05:35;98426.63;;;30.74;33.80
71903;BME280;59778;50.310;18.780;2023-09-12T15:20:57;98424.13;;;30.02;34.38
71903;BME280;59778;50.310;18.780;2023-09-12T15:36:19;98418.41;;;28.95;40.25
71903;BME280;59778;50.310;18.780;2023-09-12T15:51:40;98411.44;;;28.34;44.47
71903;BME280;59778;50.310;18.780;2023-09-12T16:07:02;98415.00;;;29.25;46.35
71903;BME280;59778;50.310;18.780;2023-09-12T16:22:23;98426.50;;;27.66;51.24
71903;BME280;59778;50.310;18.780;2023-09-12T16:37:44;98427.75;;;26.22;53.96
71903;BME280;59778;50.310;18.780;2023-09-12T16:53:06;98430.19;;;25.21;56.34
71903;BME280;59778;50.310;18.780;2023-09-12T17:08:28;98419.91;;;24.17;60.66
71903;BME280;59778;50.310;18.780;2023-09-12T17:23:50;98428.66;;;23.79;61.94
71903;BME280;59778;50.310;18.780;2023-09-12T17:39:11;98447.81;;;23.26;64.55
71903;BME280;59778;50.310;18.780;2023-09-12T17:54:33;98456.81;;;22.69;66.43
71903;BME280;59778;50.310;18.780;2023-09-12T18:09:54;98453.88;;;21.96;68.67
71903;BME280;59778;50.310;18.780;2023-09-12T18:25:15;98460.03;;;21.55;69.96
71903;BME280;59778;50.310;18.780;2023-09-12T18:40:36;98473.31;;;21.13;71.02
71903;BME280;59778;50.310;18.780;2023-09-12T18:55:58;98471.66;;;20.63;71.95
71903;BME280;59778;50.310;18.780;2023-09-12T19:11:19;98475.69;;;20.26;73.17
71903;BME280;59778;50.310;18.780;2023-09-12T19:26:41;98469.94;;;20.01;72.90
71903;BME280;59778;50.310;18.780;2023-09-12T19:42:03;98470.56;;;19.75;73.82
71903;BME280;59778;50.310;18.780;2023-09-12T19:57:24;98470.25;;;19.43;74.19
71903;BME280;59778;50.310;18.780;2023-09-12T20:12:47;98477.56;;;19.30;74.26
71903;BME280;59778;50.310;18.780;2023-09-12T20:28:09;98481.44;;;19.23;74.13
71903;BME280;59778;50.310;18.780;2023-09-12T20:43:32;98481.06;;;19.02;74.00
71903;BME280;59778;50.310;18.780;2023-09-12T20:58:54;98487.81;;;18.76;74.69
71903;BME280;59778;50.310;18.780;2023-09-12T21:14:15;98481.50;;;18.71;74.76
71903;BME280;59778;50.310;18.780;2023-09-12T21:29:36;98495.22;;;18.69;74.40
71903;BME280;59778;50.310;18.780;2023-09-12T21:44:57;98509.00;;;18.61;74.09
71903;BME280;59778;50.310;18.780;2023-09-12T22:00:19;98499.19;;;18.32;75.13
71903;BME280;59778;50.310;18.780;2023-09-12T22:15:44;98492.75;;;18.21;75.18
71903;BME280;59778;50.310;18.780;2023-09-12T22:31:13;98488.06;;;18.05;75.61
71903;BME280;59778;50.310;18.780;2023-09-12T22:46:34;98479.59;;;17.78;76.33
71903;BME280;59778;50.310;18.780;2023-09-12T23:01:55;98485.75;;;17.66;76.57
71903;BME280;59778;50.310;18.780;2023-09-12T23:17:17;98471.22;;;17.56;76.47
71903;BME280;59778;50.310;18.780;2023-09-12T23:32:39;98469.41;;;17.38;76.85
71903;BME280;59778;50.310;18.780;2023-09-12T23:48:00;98454.53;;;17.24;77.46
